Latest Weather Observations for PORTABLE RFSNSW51

IDN60801

Issued at 12:43 am EST Thursday 15 April 2021 (issued every 10 minutes, with the page automatically refreshed every 10 minutes)

About weather observations | Map of weather stations | Latest weather observations for NSW | Other Formats
Station Details ID: 250098 Name: PORTABLE RFSNSW51 Lat: -35.49 Lon: 146.97 Height: 228.0 m

Portable automatic weather stations (PAWS) are operated by other organisations, such as Fire and Emergency Services, and are included here by agreement. Portable stations may be deployed to a location for a short period and their location may be subject to change without notice. Wind observations from these stations are provided from heights of either three (3) or ten (10) metres above ground level (AGL).

Data from the previous 72 hours. | See also: Recent months for locations in New South Wales
Date/Time
EST
Temp
°C
App
Temp
°C
Dew
Point
°C
Rel
Hum
%
Delta-T
°C
Wind Press
QNH
hPa
Press
MSL
hPa
Rain since
9am
mm
Dir  Spd
km/h
Gust
km/h
Spd
kts
Gust
kts
15/12:20am 9.7 8.3 5.5 75 1.9 SW 2 2 1 1 - - 0.0
15/12:10am 9.5 8.1 5.4 75 1.9 E 2 2 1 1 - - 0.0
15/12:00am 9.3 7.9 5.6 78 1.7 ENE 2 2 1 1 - - 0.0
 
Date/Time
EST
Temp
°C
App
Temp
°C
Dew
Point
°C
Rel
Hum
%
Delta-T
°C
Wind Press
QNH
hPa
Press
MSL
hPa
Rain since
9am
mm
Dir  Spd
km/h
Gust
km/h
Spd
kts
Gust
kts
14/11:50pm 9.6 8.2 5.6 76 1.8 NNE 2 4 1 2 - - 0.0
14/11:40pm 9.5 7.8 5.9 78 1.7 NNE 4 4 2 2 - - 0.0
14/11:30pm 9.5 8.2 6.2 80 1.5 ENE 2 4 1 2 - - 0.0
14/11:20pm 10.2 8.8 5.7 73 2.1 NE 2 4 1 2 - - 0.0
14/11:10pm 10.2 8.9 5.8 74 2.1 NE 2 4 1 2 - - 0.0
14/11:00pm 10.0 8.4 6.2 77 1.8 E 4 4 2 2 - - 0.0
14/10:50pm 10.5 9.4 6.7 77 1.8 E 2 4 1 2 - - 0.0
14/10:40pm 10.8 9.6 6.5 75 2.0 ENE 2 2 1 1 - - 0.0
14/10:30pm 10.8 9.7 6.9 77 1.9 N 2 4 1 2 - - 0.0
14/10:20pm 11.2 9.9 7.6 78 1.8 ENE 4 4 2 2 - - 0.0
14/10:10pm 11.8 10.2 6.3 69 2.6 NNE 4 4 2 2 - - 0.0
14/10:00pm 11.7 10.5 6.6 71 2.4 ENE 2 4 1 2 - - 0.0
14/09:50pm 11.5 10.0 7.0 74 2.2 SE 4 4 2 2 - - 0.0
14/09:40pm 11.5 10.2 6.1 69 2.6 N 2 4 1 2 - - 0.0
14/09:30pm 11.3 10.4 7.9 79 1.7 ENE 2 4 1 2 - - 0.0
14/09:20pm 11.9 10.6 7.8 76 2.0 NE 4 4 2 2 - - 0.0
14/09:10pm 11.8 10.8 7.5 75 2.1 NE 2 4 1 2 - - 0.0
14/09:00pm 12.0 10.6 7.3 73 2.3 ESE 4 4 2 2 - - 0.0
14/08:50pm 12.0 10.8 6.4 68 2.7 SSE 2 4 1 2 - - 0.0
14/08:40pm 11.7 10.6 6.8 72 2.4 NE 2 4 1 2 - - 0.0
14/08:30pm 11.8 10.3 7.0 72 2.3 NE 4 6 2 3 - - 0.0
14/08:20pm 11.9 10.5 7.1 72 2.3 NE 4 4 2 2 - - 0.0
14/08:10pm 12.2 10.8 7.2 71 2.4 NE 4 4 2 2 - - 0.0
14/08:00pm 13.0 11.9 6.7 65 3.1 N 2 4 1 2 - - 0.0
14/07:50pm 13.9 12.6 5.8 58 3.9 NNW 2 2 1 1 - - 0.0
14/07:40pm 13.6 12.2 5.3 57 3.9 NNW 2 2 1 1 - - 0.0
14/07:30pm 13.6 12.2 5.5 58 3.9 ESE 2 4 1 2 - - 0.0
14/07:20pm 14.0 12.7 6.2 59 3.8 ENE 2 2 1 1 - - 0.0
14/07:10pm 14.0 12.7 6.1 59 3.8 E 2 2 1 1 - - 0.0
14/07:00pm 14.4 13.1 5.9 56 4.1 N 2 2 1 1 - - 0.0
14/06:50pm 14.6 13.2 5.5 54 4.4 NW 2 2 1 1 - - 0.0
14/06:40pm 15.2 14.0 6.6 56 4.2 W 2 2 1 1 - - 0.0
14/06:30pm 16.7 14.8 5.0 46 5.6 W 4 6 2 3 - - 0.0
14/06:20pm 17.1 15.2 5.1 45 5.8 WSW 4 6 2 3 - - 0.0
14/06:10pm 17.7 15.4 4.9 42 6.2 W 6 7 3 4 - - 0.0
14/06:00pm 18.0 15.5 4.9 42 6.4 W 7 9 4 5 - - 0.0
14/05:50pm 18.3 15.8 4.9 41 6.5 W 7 9 4 5 - - 0.0
14/05:40pm 18.9 16.1 5.1 40 6.8 W 9 11 5 6 - - 0.0
14/05:30pm 19.5 16.3 5.0 38 7.1 W 11 13 6 7 - - 0.0
14/05:20pm 20.1 16.5 4.8 36 7.5 W 13 17 7 9 - - 0.0
14/05:10pm 20.5 17.0 5.5 37 7.5 WSW 13 15 7 8 - - 0.0
14/05:00pm 20.8 17.3 5.6 37 7.6 W 13 15 7 8 - - 0.0
14/04:50pm 20.9 17.9 5.9 37 7.6 W 11 15 6 8 - - 0.0
14/04:40pm 21.0 16.9 6.1 38 7.6 W 17 20 9 11 - - 0.0
14/04:30pm 21.9 17.3 6.5 37 7.9 WSW 20 24 11 13 - - 0.0
14/04:20pm 22.0 18.1 7.2 38 7.7 WSW 17 19 9 10 - - 0.0
14/04:10pm 21.5 17.5 6.7 38 7.6 W 17 20 9 11 - - 0.0
14/04:00pm 21.5 17.0 6.9 38 7.5 W 20 22 11 12 - - 0.0
14/03:50pm 22.6 18.1 7.1 36 8.1 W 20 26 11 14 - - 0.0
14/03:40pm 22.5 18.1 7.5 38 7.9 WNW 20 26 11 14 - - 0.0
14/03:30pm 22.5 18.5 9.1 42 7.3 W 20 26 11 14 - - 0.0
14/03:20pm 22.2 18.1 8.5 41 7.3 W 20 30 11 16 - - 0.0
14/03:10pm 21.6 17.8 9.2 45 6.7 W 19 28 10 15 - - 0.0
14/03:00pm 21.9 17.1 8.9 43 7.0 WNW 24 30 13 16 - - 0.0
14/02:50pm 21.6 17.5 8.5 43 7.0 W 20 26 11 14 - - 0.0
14/02:40pm 21.5 16.2 8.5 43 6.9 W 26 30 14 16 - - 0.0
14/02:30pm 21.5 17.3 7.6 40 7.3 W 19 26 10 14 - - 0.0
14/02:20pm 21.2 16.3 6.7 39 7.4 W 22 26 12 14 - - 0.0
14/02:10pm 21.8 17.0 5.6 35 8.2 W 20 22 11 12 - - 0.0
14/02:00pm 21.0 16.2 4.5 34 8.1 W 19 20 10 11 - - 0.0
14/01:50pm 20.8 16.0 4.9 35 7.9 W 19 24 10 13 - - 0.0
14/01:40pm 20.7 16.3 4.8 35 7.9 W 17 20 9 11 - - 0.0
14/01:30pm 20.7 15.8 5.0 35 7.8 W 20 24 11 13 - - 0.0
14/01:20pm 20.6 15.4 5.4 37 7.6 WSW 22 28 12 15 - - 0.0
14/01:10pm 20.8 14.5 5.9 37 7.5 WSW 28 30 15 16 - - 0.0
14/01:00pm 21.9 15.7 6.1 36 8.1 W 28 35 15 19 - - 0.0
14/12:50pm 22.8 16.1 1.5 24 10.0 WNW 26 35 14 19 - - 0.0
14/12:40pm 22.6 16.3 1.8 25 9.8 WNW 24 30 13 16 - - 0.0
14/12:30pm 22.9 17.1 2.2 25 9.9 WNW 22 24 12 13 - - 0.0
14/12:20pm 23.1 16.1 2.2 25 10.0 WNW 28 32 15 17 - - 0.0
14/12:10pm 23.4 17.9 1.7 24 10.3 NW 20 30 11 16 - - 0.0
14/12:00pm 22.3 16.6 3.0 28 9.3 NW 22 26 12 14 - - 0.0
14/11:50am 21.6 15.4 2.4 28 9.1 NW 24 26 13 14 - - 0.0
14/11:40am 21.3 15.6 2.9 29 8.8 NW 22 26 12 14 - - 0.0
14/11:30am 21.0 14.9 3.0 30 8.6 NW 24 28 13 15 - - 0.0
14/11:20am 21.0 15.1 3.7 32 8.4 NW 24 28 13 15 - - 0.0
14/11:10am 21.0 15.9 3.1 30 8.6 NW 19 24 10 13 - - 0.0
14/11:00am 20.7 15.4 3.2 31 8.4 NNW 20 22 11 12 - - 0.0
14/10:50am 20.5 15.8 3.3 32 8.2 NNW 17 20 9 11 - - 0.0
14/10:40am 20.4 16.3 4.5 35 7.8 NNW 15 17 8 9 - - 0.0
14/10:30am 20.5 16.0 4.1 34 8.0 NNW 17 19 9 10 - - 0.0
14/10:20am 20.0 16.3 4.7 36 7.5 NNW 13 15 7 8 - - 0.0
14/10:10am 20.0 15.9 4.1 35 7.7 NNW 15 17 8 9 - - 0.0
14/10:00am 18.9 14.8 4.1 37 7.1 NNW 15 19 8 10 - - 0.0
14/09:50am 18.3 14.2 4.1 39 6.8 NNW 15 17 8 9 - - 0.0
14/09:40am 17.8 14.1 4.5 41 6.4 NNW 13 15 7 8 - - 0.0
14/09:30am 17.5 13.4 4.5 42 6.2 N 15 17 8 9 - - 0.0
14/09:20am 17.0 12.9 4.3 43 6.0 N 15 17 8 9 - - 0.0
14/09:10am 16.6 12.1 4.2 43 5.9 N 17 20 9 11 - - 0.0
14/09:00am 16.6 12.1 4.3 44 5.8 N 17 20 9 11 - - 0.0
14/08:50am 16.6 12.9 4.3 44 5.8 N 13 15 7 8 - - 0.0
14/08:40am 16.5 11.9 3.9 43 5.9 N 17 19 9 10 - - 0.0
14/08:30am 16.4 13.1 4.4 45 5.7 N 11 13 6 7 - - 0.0
14/08:20am 16.5 13.5 4.3 44 5.8 N 9 13 5 7 - - 0.0
14/07:30am 16.4 13.0 3.8 43 5.9 N 11 11 6 6 - - 0.0
14/07:20am 16.4 12.5 3.5 42 6.0 N 13 15 7 8 - - 0.0
14/07:10am 16.3 13.2 3.6 42 5.9 N 9 13 5 7 - - 0.0
14/07:00am 16.1 12.7 3.8 44 5.8 NNE 11 15 6 8 - - 0.0
14/06:50am 16.1 12.3 3.9 44 5.7 NNE 13 15 7 8 - - 0.0
14/06:40am 16.2 12.4 3.7 43 5.8 N 13 15 7 8 - - 0.0
14/06:30am 16.2 12.3 3.5 42 5.9 N 13 15 7 8 - - 0.0
14/06:20am 16.2 12.4 3.8 43 5.8 N 13 15 7 8 - - 0.0
14/06:10am 16.3 12.4 3.4 42 6.0 N 13 15 7 8 - - 0.0
14/06:00am 16.3 12.8 3.7 43 5.9 N 11 13 6 7 - - 0.0
14/05:50am 16.2 12.7 3.6 43 5.9 N 11 15 6 8 - - 0.0
14/05:40am 16.2 12.8 4.1 44 5.7 NNE 11 13 6 7 - - 0.0
14/05:30am 16.4 12.9 3.7 42 5.9 N 11 13 6 7 - - 0.0
14/05:20am 16.3 13.3 3.9 43 5.8 NNE 9 13 5 7 - - 0.0
14/05:10am 16.3 13.2 3.6 42 5.9 NNE 9 11 5 6 - - 0.0
14/05:00am 16.3 13.2 3.7 43 5.9 NNE 9 11 5 6 - - 0.0
14/04:50am 16.4 12.9 3.7 42 5.9 N 11 13 6 7 - - 0.0
14/04:40am 16.5 13.1 4.0 43 5.9 N 11 13 6 7 - - 0.0
14/04:30am 16.6 13.1 3.7 42 6.0 N 11 13 6 7 - - 0.0
14/04:20am 16.6 13.1 3.7 42 6.0 N 11 15 6 8 - - 0.0
14/04:10am 16.6 13.1 3.5 41 6.1 N 11 13 6 7 - - 0.0
14/04:00am 16.6 13.2 4.1 43 5.9 N 11 13 6 7 - - 0.0
14/03:50am 16.5 13.1 4.1 43 5.9 NNE 11 13 6 7 - - 0.0
14/03:40am 16.6 13.1 3.7 42 6.0 NNE 11 13 6 7 - - 0.0
14/03:30am 16.5 13.5 4.1 43 5.9 NNE 9 11 5 6 - - 0.0
14/03:20am 16.6 13.2 4.2 43 5.9 NNE 11 11 6 6 - - 0.0
14/03:10am 16.5 13.1 4.0 43 5.9 NNE 11 11 6 6 - - 0.0
14/03:00am 16.5 13.5 4.2 44 5.8 NNE 9 11 5 6 - - 0.0
14/02:50am 16.5 13.5 4.2 44 5.8 N 9 11 5 6 - - 0.0
14/02:40am 16.6 13.6 4.2 43 5.9 N 9 11 5 6 - - 0.0
14/02:30am 16.7 13.3 4.0 43 6.0 NNE 11 11 6 6 - - 0.0
14/02:20am 16.7 13.3 4.2 43 5.9 N 11 11 6 6 - - 0.0
14/02:10am 16.7 13.7 4.1 43 6.0 N 9 11 5 6 - - 0.0
14/02:00am 16.8 13.8 4.2 43 6.0 NNE 9 11 5 6 - - 0.0
14/01:50am 16.7 13.8 4.4 44 5.9 NNE 9 11 5 6 - - 0.0
14/01:40am 16.7 13.7 4.3 43 5.9 NNE 9 9 5 5 - - 0.0
14/01:30am 16.8 13.8 4.0 42 6.0 NNE 9 11 5 6 - - 0.0
14/01:20am 16.8 13.9 4.4 43 5.9 N 9 11 5 6 - - 0.0
14/01:10am 16.9 13.6 4.3 43 6.0 NNE 11 11 6 6 - - 0.0
14/01:00am 16.9 14.0 4.5 43 5.9 NNE 9 11 5 6 - - 0.0
14/12:50am 16.9 13.9 4.3 43 6.0 N 9 11 5 6 - - 0.0
14/12:40am 16.9 14.0 4.5 43 5.9 N 9 11 5 6 - - 0.0
14/12:30am 16.5 13.6 4.4 44 5.8 NNE 9 11 5 6 - - 0.0
14/12:20am 15.9 13.6 5.7 50 5.0 NNE 7 9 4 5 - - 0.0
14/12:10am 15.9 13.9 6.2 52 4.8 NNE 6 7 3 4 - - 0.0
14/12:00am 15.9 13.8 5.7 50 5.0 NNE 6 7 3 4 - - 0.0
 
Date/Time
EST
Temp
°C
App
Temp
°C
Dew
Point
°C
Rel
Hum
%
Delta-T
°C
Wind Press
QNH
hPa
Press
MSL
hPa
Rain since
9am
mm
Dir  Spd
km/h
Gust
km/h
Spd
kts
Gust
kts
13/11:50pm 15.7 13.4 5.7 51 4.9 NE 7 9 4 5 - - 0.0
13/11:40pm 15.6 13.4 6.4 54 4.5 NE 7 9 4 5 - - 0.0
13/11:30pm 15.6 13.0 6.1 53 4.6 NE 9 9 5 5 - - 0.0
13/11:20pm 15.9 13.7 6.2 52 4.8 NE 7 7 4 4 - - 0.0
13/11:10pm 16.1 13.8 5.6 49 5.1 NNE 7 7 4 4 - - 0.0
13/11:00pm 16.3 14.2 5.7 49 5.2 NNE 6 7 3 4 - - 0.0
13/10:50pm 16.4 14.0 5.2 47 5.4 NNE 7 11 4 6 - - 0.0
13/10:40pm 16.4 13.6 5.3 47 5.4 NNE 9 11 5 6 - - 0.0
13/10:30pm 16.3 13.1 5.0 47 5.4 NE 11 17 6 9 - - 0.0
13/10:20pm 15.8 12.0 5.7 51 4.9 NE 15 17 8 9 - - 0.0
13/10:10pm 15.8 12.4 5.7 51 4.9 NE 13 13 7 7 - - 0.0
13/10:00pm 15.6 13.4 6.0 53 4.7 NE 7 9 4 5 - - 0.0
13/09:50pm 15.8 13.5 5.8 51 4.9 NE 7 7 4 4 - - 0.0
13/09:40pm 15.8 13.5 5.6 50 4.9 NE 7 9 4 5 - - 0.0
13/09:30pm 15.8 13.4 5.2 49 5.1 ENE 7 7 4 4 - - 0.0
13/09:20pm 15.6 13.5 5.6 51 4.8 ENE 6 7 3 4 - - 0.0
13/09:10pm 15.4 13.1 5.7 52 4.7 ENE 7 7 4 4 - - 0.0
13/09:00pm 15.3 13.2 5.9 53 4.6 ENE 6 7 3 4 - - 0.0
13/08:50pm 15.3 13.2 5.9 53 4.6 E 6 6 3 3 - - 0.0
13/08:40pm 15.5 13.6 6.8 56 4.3 E 6 6 3 3 - - 0.0
13/08:30pm 15.6 13.7 6.6 55 4.4 ENE 6 7 3 4 - - 0.0
13/08:20pm 15.4 13.3 5.7 52 4.7 ENE 6 6 3 3 - - 0.0
13/08:10pm 15.8 14.2 7.8 59 4.1 E 6 7 3 4 - - 0.0
13/08:00pm 16.2 14.4 5.4 48 5.2 ENE 4 6 2 3 - - 0.0
13/07:50pm 15.8 13.6 5.2 49 5.1 ENE 6 7 3 4 - - 0.0
13/07:40pm 15.6 13.5 6.8 56 4.4 E 7 7 4 4 - - 0.0
13/07:30pm 15.5 13.7 7.2 57 4.1 E 6 6 3 3 - - 0.0
13/07:20pm 15.6 14.2 7.4 58 4.1 E 4 4 2 2 - - 0.0
13/07:10pm 15.7 14.4 7.6 58 4.1 E 4 4 2 2 - - 0.0
13/07:00pm 15.9 15.0 7.6 58 4.2 E 2 2 1 1 - - 0.0
13/06:50pm 15.9 14.1 5.2 49 5.1 NE 4 6 2 3 - - 0.0
13/06:40pm 16.0 13.9 5.8 50 5.0 NE 6 6 3 3 - - 0.0
13/06:30pm 16.1 13.9 6.1 51 4.9 NE 7 7 4 4 - - 0.0
13/06:20pm 16.3 14.4 6.5 52 4.9 NE 6 7 3 4 - - 0.0
13/06:10pm 17.1 15.2 6.7 50 5.2 NNE 6 7 3 4 - - 0.0
13/06:00pm 17.7 15.7 4.6 42 6.3 N 4 6 2 3 - - 0.0
13/05:50pm 17.9 15.9 4.5 41 6.4 N 4 6 2 3 - - 0.0
13/05:40pm 18.2 15.9 4.6 40 6.6 N 6 7 3 4 - - 0.0
13/05:30pm 18.4 16.1 4.6 40 6.7 NNE 6 7 3 4 - - 0.0
13/05:20pm 18.7 16.1 4.3 38 6.9 N 7 11 4 6 - - 0.0
13/05:10pm 19.0 16.0 4.2 37 7.1 N 9 11 5 6 - - 0.0
13/05:00pm 19.2 16.5 3.9 36 7.3 N 7 11 4 6 - - 0.0
13/04:50pm 19.3 16.3 3.9 36 7.4 N 9 11 5 6 - - 0.0
13/04:40pm 19.4 16.3 3.6 35 7.6 N 9 15 5 8 - - 0.0
13/04:30pm 19.4 16.3 3.4 34 7.6 NNE 9 11 5 6 - - 0.0
13/04:20pm 19.7 15.8 3.2 33 7.8 N 13 17 7 9 - - 0.0
13/04:10pm 20.1 16.1 3.1 32 8.1 N 13 17 7 9 - - 0.0
13/04:00pm 20.0 16.0 3.1 32 8.0 NNE 13 19 7 10 - - 0.0
13/03:50pm 20.3 16.5 3.7 33 8.0 NNE 13 17 7 9 - - 0.0
13/03:40pm 20.8 17.1 4.2 33 8.1 NNE 13 15 7 8 - - 0.0
13/03:30pm 20.5 16.2 3.4 32 8.2 N 15 17 8 9 - - 0.0
13/03:20pm 20.4 16.4 3.0 31 8.3 N 13 15 7 8 - - 0.0
13/03:10pm 20.0 16.2 3.7 34 7.8 N 13 17 7 9 - - 0.0
13/03:00pm 20.0 16.2 3.7 34 7.8 N 13 19 7 10 - - 0.0
13/02:50pm 19.9 16.0 3.6 34 7.8 N 13 17 7 9 - - 0.0
13/02:40pm 19.8 16.4 3.9 35 7.7 N 11 19 6 10 - - 0.0
13/02:30pm 20.0 15.8 4.0 34 7.7 N 15 19 8 10 - - 0.0
13/02:20pm 20.4 16.7 4.3 34 7.9 N 13 17 7 9 - - 0.0
13/02:10pm 20.7 17.0 4.7 35 7.9 N 13 19 7 10 - - 0.0
13/02:00pm 19.8 16.5 4.6 36 7.4 N 11 15 6 8 - - 0.0
13/01:50pm 19.6 16.4 5.3 39 7.1 NNE 11 17 6 9 - - 0.0
13/01:40pm 20.0 16.6 6.0 40 7.0 N 13 19 7 10 - - 0.0
13/01:30pm 19.5 16.3 5.0 38 7.1 N 11 13 6 7 - - 0.0
13/01:20pm 19.1 15.6 5.3 40 6.8 N 13 17 7 9 - - 0.0
13/01:10pm 19.5 16.3 5.3 39 7.0 N 11 17 6 9 - - 0.0
13/01:00pm 19.3 16.1 5.3 39 6.9 NNW 11 15 6 8 - - 0.0
13/12:50pm 19.1 15.5 5.1 39 6.9 N 13 17 7 9 - - 0.0
13/12:40pm 19.3 15.3 4.7 38 7.1 N 15 19 8 10 - - 0.0
13/12:30pm 19.4 15.3 4.3 37 7.3 N 15 22 8 12 - - 0.0
13/12:20pm 19.0 15.0 4.8 39 6.9 N 15 17 8 9 - - 0.0
13/12:10pm 19.0 15.4 4.9 39 6.9 NNE 13 15 7 8 - - 0.0
13/12:00pm 18.5 14.5 5.0 41 6.6 N 15 20 8 11 - - 0.0
13/11:50am 18.1 14.5 5.2 42 6.3 NE 13 17 7 9 - - 0.0
13/11:40am 18.1 14.1 5.0 42 6.4 NNE 15 19 8 10 - - 0.0
13/11:30am 17.6 13.6 5.1 43 6.1 NNE 15 19 8 10 - - 0.0
13/11:20am 17.7 13.7 5.1 43 6.1 N 15 20 8 11 - - 0.0
13/11:10am 17.7 13.3 5.0 43 6.2 NE 17 20 9 11 - - 0.0
13/11:00am 17.6 13.7 5.2 44 6.0 N 15 19 8 10 - - 0.0
13/10:50am 17.1 13.2 5.5 46 5.7 NNE 15 19 8 10 - - 0.0
13/10:40am 16.5 12.7 5.8 49 5.2 NNE 15 17 8 9 - - 0.0
13/10:30am 16.4 12.2 5.9 50 5.1 NNE 17 22 9 12 - - 0.0
13/10:20am 16.4 12.6 5.9 50 5.1 NNE 15 17 8 9 - - 0.0
13/10:10am 16.0 11.9 6.0 51 4.9 NE 17 19 9 10 - - 0.0
13/10:00am 15.6 11.5 6.2 53 4.6 NNE 17 19 9 10 - - 0.0
13/09:50am 15.4 11.2 5.9 53 4.6 NNE 17 19 9 10 - - 0.0
13/09:40am 15.0 10.5 6.0 55 4.4 NNE 19 20 10 11 - - 0.0
13/09:30am 14.7 10.9 5.9 55 4.3 NNE 15 19 8 10 - - 0.0
13/09:20am 14.3 10.5 6.0 57 4.0 NNE 15 19 8 10 - - 0.0
13/09:10am 13.9 10.5 5.8 58 3.9 NNE 13 19 7 10 - - 0.0
13/09:00am 13.2 10.2 6.1 62 3.4 NE 11 15 6 8 - - 0.0
13/08:50am 12.4 9.8 6.3 66 2.9 NE 9 9 5 5 - - 0.0
13/08:40am 12.0 9.5 6.7 70 2.6 ENE 9 9 5 5 - - 0.0
13/08:30am 11.5 9.6 6.9 73 2.2 NE 6 7 3 4 - - 0.0
13/08:20am 11.0 8.9 5.9 71 2.4 NNE 6 6 3 3 - - 0.0
13/08:10am 10.3 9.0 5.8 73 2.1 NNE 2 4 1 2 - - 0.0
13/08:00am 9.6 8.8 6.7 82 1.4 CALM 0 2 0 1 - - 0.0
13/07:50am 9.0 7.8 6.4 84 1.2 W 2 2 1 1 - - 0.0
13/07:40am 8.3 7.0 6.2 87 1.0 W 2 2 1 1 - - 0.0
13/07:30am 7.1 5.8 6.0 93 0.5 SE 2 2 1 1 - - 0.0
13/07:20am 5.4 3.8 4.4 93 0.4 ESE 2 4 1 2 - - 0.0
13/07:10am 4.5 2.3 3.4 93 0.5 ESE 4 4 2 2 - - 0.0
13/07:00am 4.2 2.4 3.4 94 0.3 SE 2 4 1 2 - - 0.0
13/06:50am 3.9 2.1 3.3 96 0.2 SE 2 2 1 1 - - 0.0
13/06:40am 3.5 1.6 3.0 97 0.2 ESE 2 4 1 2 - - 0.0
13/06:30am 3.1 0.7 2.4 95 0.3 ESE 4 6 2 3 - - 0.0
13/06:20am 3.0 0.6 2.3 95 0.3 ESE 4 4 2 2 - - 0.0
13/06:10am 3.2 1.3 2.6 96 0.2 SSE 2 4 1 2 - - 0.0
13/06:00am 3.1 1.1 2.5 96 0.2 SSE 2 2 1 1 - - 0.0
13/05:50am 2.8 0.8 2.1 95 0.3 S 2 2 1 1 - - 0.0
13/05:40am 2.9 0.5 2.0 94 0.4 SSE 4 4 2 2 - - 0.0
13/05:30am 3.3 1.3 2.5 94 0.3 SSW 2 2 1 1 - - 0.0
13/05:20am 3.2 1.2 2.4 94 0.3 WSW 2 2 1 1 - - 0.0
13/05:10am 3.1 1.1 2.3 94 0.3 ENE 2 2 1 1 - - 0.0
13/05:00am 3.1 0.7 2.0 92 0.4 NNE 4 4 2 2 - - 0.0
13/04:50am 3.3 0.9 2.1 92 0.5 NNE 4 6 2 3 - - 0.0
13/04:40am 3.7 1.4 2.6 92 0.4 E 4 4 2 2 - - 0.0
13/04:30am 3.7 1.4 2.9 94 0.3 E 4 4 2 2 - - 0.0
13/04:20am 3.2 1.2 2.1 92 0.4 E 2 4 1 2 - - 0.0
13/04:10am 3.6 1.2 2.4 92 0.5 SE 4 4 2 2 - - 0.0
13/04:00am 3.5 1.5 2.4 92 0.4 SE 2 4 1 2 - - 0.0
13/03:50am 3.5 0.7 2.2 91 0.5 S 6 7 3 4 - - 0.0
13/03:40am 4.0 2.0 2.4 89 0.6 SSW 2 4 1 2 - - 0.0
13/03:30am 4.5 2.7 3.2 91 0.5 S 2 4 1 2 - - 0.0
13/03:20am 4.3 2.4 2.9 91 0.6 SSE 2 2 1 1 - - 0.0
13/03:10am 4.5 2.7 3.3 92 0.5 SSE 2 2 1 1 - - 0.0
13/03:00am 4.4 2.5 3.1 91 0.5 S 2 2 1 1 - - 0.0
13/02:50am 4.5 2.6 2.8 89 0.7 SSE 2 2 1 1 - - 0.0
13/02:40am 4.8 3.0 3.3 90 0.6 S 2 4 1 2 - - 0.0
13/02:30am 4.4 2.2 3.3 93 0.5 SSW 4 4 2 2 - - 0.0
13/02:20am 4.3 2.4 2.8 90 0.6 SSW 2 4 1 2 - - 0.0
13/02:10am 4.7 3.1 2.7 87 0.8 CALM 0 2 0 1 - - 0.0
13/02:00am 5.2 3.4 3.4 88 0.8 SW 2 4 1 2 - - 0.0
13/01:50am 5.1 2.9 3.6 90 0.6 WSW 4 4 2 2 - - 0.0
13/01:40am 5.1 3.3 3.2 87 0.8 W 2 4 1 2 - - 0.0
13/01:30am 5.2 3.4 3.6 89 0.7 WNW 2 2 1 1 - - 0.0
13/01:20am 5.1 3.3 3.2 87 0.8 SW 2 2 1 1 - - 0.0
13/01:10am 5.3 3.5 3.2 86 0.9 S 2 2 1 1 - - 0.0
13/01:00am 5.6 3.8 3.4 86 0.9 SSW 2 2 1 1 - - 0.0
13/12:50am 5.9 4.1 3.5 84 1.0 S 2 2 1 1 - - 0.0
13/12:40am 6.2 4.4 3.4 82 1.2 E 2 2 1 1 - - 0.0
13/12:30am 5.9 4.2 3.8 86 0.9 E 2 2 1 1 - - 0.0
13/12:20am 5.7 3.5 3.4 85 1.0 ESE 4 6 2 3 - - 0.0
13/12:10am 5.7 3.5 3.5 86 0.9 SE 4 6 2 3 - - 0.0
13/12:00am 6.1 4.0 3.7 84 1.0 SE 4 4 2 2 - - 0.0
 
Date/Time
EST
Temp
°C
App
Temp
°C
Dew
Point
°C
Rel
Hum
%
Delta-T
°C
Wind Press
QNH
hPa
Press
MSL
hPa
Rain since
9am
mm
Dir  Spd
km/h
Gust
km/h
Spd
kts
Gust
kts
12/11:50pm 6.8 5.1 3.9 82 1.3 S 2 4 1 2 - - 0.0
12/11:40pm 6.8 5.1 4.0 82 1.2 NW 2 2 1 1 - - 0.0
12/11:30pm 6.7 5.1 4.3 85 1.0 NE 2 4 1 2 - - 0.0
12/11:20pm 6.7 4.7 4.4 85 1.0 E 4 4 2 2 - - 0.0
12/11:10pm 6.7 5.1 4.3 85 1.0 E 2 2 1 1 - - 0.0
12/11:00pm 6.8 4.7 4.0 82 1.2 SE 4 4 2 2 - - 0.0
12/10:50pm 7.0 5.2 3.7 79 1.4 SE 2 4 1 2 - - 0.0
12/10:40pm 7.3 5.2 3.9 79 1.5 SE 4 4 2 2 - - 0.0
12/10:30pm 7.5 5.4 4.1 79 1.5 SW 4 4 2 2 - - 0.0
12/10:20pm 7.6 5.9 3.9 77 1.6 S 2 4 1 2 - - 0.0
12/10:10pm 7.1 5.5 4.5 83 1.1 SSE 2 2 1 1 - - 0.0
12/10:00pm 7.2 5.7 5.1 86 0.9 ESE 2 4 1 2 - - 0.0
12/09:50pm 7.7 6.1 4.4 79 1.5 ESE 2 4 1 2 - - 0.0
12/09:40pm 7.4 5.8 4.5 82 1.3 SE 2 4 1 2 - - 0.0
12/09:30pm 7.3 5.7 4.3 81 1.3 ESE 2 2 1 1 - - 0.0
12/09:20pm 7.4 5.0 4.4 81 1.3 NE 6 6 3 3 - - 0.0
12/09:10pm 8.0 6.0 4.6 79 1.5 ESE 4 4 2 2 - - 0.0
12/09:00pm 8.1 6.1 4.6 78 1.6 SSE 4 6 2 3 - - 0.0
12/08:50pm 8.4 5.9 4.0 74 1.9 S 6 7 3 4 - - 0.0
12/08:40pm 8.5 6.8 4.1 74 1.9 S 2 4 1 2 - - 0.0
12/08:30pm 8.7 6.9 5.5 80 1.5 SSE 4 4 2 2 - - 0.0
12/08:20pm 8.8 7.2 4.6 75 1.9 SE 2 2 1 1 - - 0.0
12/08:10pm 8.9 7.2 4.2 72 2.1 SW 2 4 1 2 - - 0.0
12/08:00pm 9.1 7.7 5.6 79 1.6 WSW 2 2 1 1 - - 0.0
12/07:50pm 9.5 8.1 5.3 75 1.9 SW 2 2 1 1 - - 0.0
12/07:40pm 10.4 8.4 4.5 67 2.7 SW 4 4 2 2 - - 0.0
12/07:30pm 10.6 8.5 3.7 62 3.1 SW 4 6 2 3 - - 0.0
12/07:20pm 11.0 8.7 4.7 65 2.9 SSW 6 6 3 3 - - 0.0
12/07:10pm 11.0 8.5 3.9 61 3.2 SW 6 7 3 4 - - 0.0
12/07:00pm 11.1 9.1 4.4 63 3.0 SSW 4 4 2 2 - - 0.0
12/06:50pm 11.7 9.3 4.4 61 3.3 SSW 6 6 3 3 - - 0.0
12/06:40pm 12.6 10.1 3.8 55 4.0 SW 6 6 3 3 - - 0.0
12/06:30pm 12.7 10.3 4.2 56 3.9 SSW 6 6 3 3 - - 0.0
12/06:20pm 13.0 10.9 4.0 54 4.1 S 4 6 2 3 - - 0.0
12/06:10pm 13.6 11.2 4.3 53 4.3 S 6 6 3 3 - - 0.0
12/06:00pm 13.8 11.3 3.9 51 4.6 S 6 6 3 3 - - 0.0
12/05:50pm 14.4 12.1 4.7 52 4.6 S 6 7 3 4 - - 0.0
12/05:40pm 14.8 12.2 4.2 49 5.0 S 7 7 4 4 - - 0.0
12/05:30pm 15.4 12.5 4.4 48 5.2 S 9 11 5 6 - - 0.0
12/05:20pm 16.0 13.0 4.0 44 5.6 S 9 13 5 7 - - 0.0
12/05:10pm 16.4 13.8 4.0 43 5.8 SSE 7 11 4 6 - - 0.0
12/05:00pm 16.5 13.0 3.6 42 6.0 S 11 13 6 7 - - 0.0
12/04:50pm 16.7 13.2 3.7 42 6.1 S 11 15 6 8 - - 0.0
12/04:40pm 16.8 12.9 3.4 40 6.3 S 13 17 7 9 - - 0.0
12/04:30pm 16.8 13.0 3.7 41 6.2 S 13 17 7 9 - - 0.0
12/04:20pm 17.0 12.7 3.5 40 6.3 S 15 17 8 9 - - 0.0
12/04:10pm 17.1 12.8 3.5 40 6.4 S 15 17 8 9 - - 0.0
12/04:00pm 17.2 13.2 3.0 38 6.6 S 13 17 7 9 - - 0.0
12/03:50pm 17.3 13.9 3.8 40 6.4 S 11 15 6 8 - - 0.0
12/03:40pm 17.3 13.8 3.7 40 6.4 S 11 13 6 7 - - 0.0
12/03:30pm 17.5 13.7 4.0 40 6.4 S 13 17 7 9 - - 0.0
12/03:20pm 17.3 13.5 3.8 40 6.4 S 13 19 7 10 - - 0.0
12/03:10pm 17.2 14.0 3.2 39 6.5 S 9 13 5 7 - - 0.0
12/03:00pm 17.1 13.7 3.9 41 6.2 SSE 11 17 6 9 - - 0.0
12/02:50pm 17.3 14.4 4.4 42 6.2 S 9 11 5 6 - - 0.0
12/02:40pm 17.0 13.6 4.1 42 6.1 S 11 15 6 8 - - 0.0
12/02:30pm 17.4 13.6 4.0 41 6.4 S 13 15 7 8 - - 0.0
12/02:20pm 17.8 14.4 3.9 39 6.6 W 11 13 6 7 - - 0.0
12/02:10pm 17.7 14.7 3.9 40 6.6 S 9 15 5 8 - - 0.0
12/02:00pm 17.4 14.4 4.1 41 6.3 S 9 17 5 9 - - 0.0
12/01:50pm 17.0 14.0 4.0 42 6.2 S 9 15 5 8 - - 0.0
12/01:40pm 17.2 14.1 3.8 41 6.3 SSE 9 19 5 10 - - 0.0
12/01:30pm 17.3 14.0 4.5 42 6.1 S 11 17 6 9 - - 0.0
12/01:20pm 16.9 13.9 4.2 43 6.0 SSW 9 15 5 8 - - 0.0
12/01:10pm 16.9 14.0 4.5 43 5.9 SSW 9 13 5 7 - - 0.0
12/01:00pm 16.5 12.7 4.1 43 5.9 SW 13 17 7 9 - - 0.0
12/12:50pm 16.3 13.8 4.5 45 5.6 SSE 7 13 4 7 - - 0.0
12/12:40pm 16.1 12.7 4.0 44 5.7 S 11 15 6 8 - - 0.0
12/12:30pm 16.3 12.1 3.9 43 5.8 SSW 15 19 8 10 - - 0.0
12/12:20pm 16.1 13.2 4.4 45 5.5 S 9 17 5 9 - - 0.0
12/12:10pm 15.8 13.0 3.2 43 5.8 S 7 13 4 7 - - 0.0
12/12:00pm 15.7 11.9 3.7 44 5.6 SW 13 17 7 9 - - 0.0
12/11:50am 15.8 13.2 4.3 46 5.4 SSE 7 13 4 7 - - 0.0
12/11:40am 15.2 12.1 3.6 46 5.4 S 9 17 5 9 - - 0.0
12/11:30am 15.5 12.9 4.2 47 5.3 SW 7 19 4 10 - - 0.0
12/11:20am 15.1 12.3 3.2 45 5.5 SSW 7 9 4 5 - - 0.0
12/11:10am 14.8 11.7 3.7 47 5.1 SW 9 13 5 7 - - 0.0
12/11:00am 14.6 11.9 3.6 47 5.1 W 7 13 4 7 - - 0.0
12/10:50am 14.5 11.5 4.3 50 4.8 WSW 9 13 5 7 - - 0.0
12/10:40am 14.3 11.9 5.1 54 4.4 SW 7 13 4 7 - - 0.0
12/10:30am 14.1 11.7 5.1 54 4.3 SSW 7 13 4 7 - - 0.0
12/10:20am 13.5 10.8 5.5 58 3.8 SW 9 15 5 8 - - 0.0
12/10:10am 13.2 10.1 5.6 60 3.6 WSW 11 15 6 8 - - 0.0
12/10:00am 12.7 9.6 5.4 61 3.4 WSW 11 13 6 7 - - 0.0
12/09:50am 12.4 10.1 5.7 63 3.2 SW 7 9 4 5 - - 0.0
12/09:40am 12.2 9.1 5.6 64 3.1 SW 11 15 6 8 - - 0.0
12/09:30am 11.7 8.6 5.6 66 2.9 SSW 11 11 6 6 - - 0.0
12/09:20am 11.1 8.0 5.5 68 2.6 SSW 11 13 6 7 - - 0.0
12/09:10am 10.7 8.0 5.7 71 2.3 SSW 9 11 5 6 - - 0.0
12/09:00am 10.4 7.4 5.8 73 2.1 SSW 11 11 6 6 - - 0.0
12/08:50am 10.0 6.9 5.6 74 2.0 SW 11 15 6 8 - - 0.0
12/08:40am 9.7 6.7 6.0 78 1.7 SW 11 15 6 8 - - 0.0
12/08:30am 9.1 6.5 6.2 82 1.4 SW 9 11 5 6 - - 0.0
12/08:20am 8.4 6.3 5.8 84 1.2 SW 6 7 3 4 - - 0.0
12/08:10am 7.9 5.6 5.5 85 1.1 WSW 7 9 4 5 - - 0.0
12/08:00am 7.3 4.9 5.3 87 0.9 WSW 7 7 4 4 - - 0.0
12/07:50am 6.6 4.3 5.0 89 0.7 W 6 7 3 4 - - 0.0
12/07:40am 6.1 4.2 4.8 91 0.6 WSW 4 6 2 3 - - 0.0
12/07:30am 5.1 3.1 4.2 94 0.4 WSW 4 6 2 3 - - 0.0
12/07:20am 4.2 2.0 3.4 94 0.3 WSW 4 4 2 2 - - 0.0
12/07:10am 3.5 1.6 2.6 94 0.4 SSW 2 4 1 2 - - 0.0
12/07:00am 3.0 1.0 2.2 94 0.3 SSE 2 4 1 2 - - 0.0
12/06:50am 3.1 0.8 2.5 96 0.2 WNW 4 4 2 2 - - 0.0
12/06:40am 2.8 0.8 2.1 95 0.3 ENE 2 4 1 2 - - 0.0
12/06:30am 2.7 0.7 2.1 96 0.2 SE 2 2 1 1 - - 0.0
12/06:20am 2.6 0.1 1.8 94 0.3 ENE 4 6 2 3 - - 0.0
12/06:10am 2.7 -0.3 1.9 94 0.3 ENE 7 9 4 5 - - 0.0
12/06:00am 2.9 0.1 1.9 93 0.4 ENE 6 7 3 4 - - 0.0
12/05:50am 3.5 1.2 2.5 93 0.4 S 4 6 2 3 - - 0.0
12/05:40am 3.8 1.1 2.8 93 0.4 S 6 6 3 3 - - 0.0
12/05:30am 4.0 1.8 3.3 95 0.3 S 4 6 2 3 - - 0.0
12/05:20am 3.4 1.1 2.6 94 0.3 SSW 4 6 2 3 - - 0.0
12/05:10am 3.0 0.5 1.8 92 0.5 ENE 4 6 2 3 - - 0.0
12/05:00am 4.1 1.7 2.2 87 0.8 S 4 6 2 3 - - 0.0
12/04:50am 4.8 2.2 3.3 90 0.6 SSW 6 6 3 3 - - 0.0
12/04:40am 4.6 2.4 3.4 92 0.5 SW 4 6 2 3 - - 0.0
12/04:30am 4.5 2.3 3.3 92 0.5 WSW 4 6 2 3 - - 0.0
12/04:20am 4.2 2.3 3.0 92 0.5 SSW 2 4 1 2 - - 0.0
12/04:10am 4.1 2.2 2.9 92 0.5 N 2 2 1 1 - - 0.0
12/04:00am 3.8 1.8 2.3 90 0.6 ESE 2 4 1 2 - - 0.0
12/03:50am 4.1 1.2 2.4 89 0.7 SW 7 9 4 5 - - 0.0
12/03:40am 4.5 1.2 2.7 88 0.7 SW 9 9 5 5 - - 0.0
12/03:30am 5.0 2.2 2.9 86 0.9 WSW 7 9 4 5 - - 0.0
12/03:20am 4.8 1.6 3.0 88 0.7 WSW 9 11 5 6 - - 0.0
12/03:10am 4.8 1.6 3.0 88 0.7 WSW 9 11 5 6 - - 0.0
12/03:00am 4.7 1.5 2.8 87 0.8 WSW 9 9 5 5 - - 0.0
12/02:50am 5.7 2.9 3.1 83 1.1 SW 7 9 4 5 - - 0.0
12/02:40am 6.2 4.0 3.6 83 1.1 WSW 4 6 2 3 - - 0.0
12/02:30am 6.2 3.5 3.6 83 1.1 WSW 7 9 4 5 - - 0.0
12/02:20am 6.5 3.0 3.6 82 1.2 SW 11 13 6 7 - - 0.0
12/02:10am 6.5 3.0 3.7 82 1.2 SW 11 15 6 8 - - 0.0
12/02:00am 6.6 3.1 3.6 81 1.3 SW 11 13 6 7 - - 0.0
12/01:50am 6.5 3.0 3.5 81 1.3 SW 11 13 6 7 - - 0.0
12/01:40am 6.6 3.5 3.4 80 1.4 SW 9 11 5 6 - - 0.0
12/01:30am 6.8 3.7 3.5 79 1.4 SW 9 11 5 6 - - 0.0
12/01:20am 7.0 3.1 3.5 78 1.5 SW 13 15 7 8 - - 0.0
12/01:10am 7.0 3.1 3.5 78 1.5 SW 13 13 7 7 - - 0.0
12/01:00am 7.3 3.1 3.6 77 1.6 SW 15 17 8 9 - - 0.0
12/12:50am 7.5 3.3 3.7 77 1.6 SW 15 17 8 9 - - 0.0

Other formats

Comma delimited format used in spreadsheet applications
http://www.bom.gov.au/fwo/IDN60801/IDN60801.99998.axf

JavaScript Object Notation format (JSON) in row-major order
http://www.bom.gov.au/fwo/IDN60801/IDN60801.99998.json

Data quality

Most of these data are generated automatically and are frequently updated. Quality checks on data are not normally performed. It is possible for incorrect values to appear. Refer to information at About Latest Weather Observations and please check the disclaimer before using these data.